sensor_id;sensor_type;location;lat;lon;timestamp;P1;durP1;ratioP1;P2;durP2;ratioP2
49422;SDS011;36998;51.974;20.150;2022-09-30T00:01:16;80.25;;;30.85;;
49422;SDS011;36998;51.974;20.150;2022-09-30T00:03:41;90.80;;;32.10;;
49422;SDS011;36998;51.974;20.150;2022-09-30T00:06:07;80.75;;;29.90;;
49422;SDS011;36998;51.974;20.150;2022-09-30T00:08:33;84.70;;;31.33;;
49422;SDS011;36998;51.974;20.150;2022-09-30T00:10:59;85.00;;;30.80;;
49422;SDS011;36998;51.974;20.150;2022-09-30T00:13:34;89.22;;;31.15;;
49422;SDS011;36998;51.974;20.150;2022-09-30T00:16:01;86.45;;;32.45;;
49422;SDS011;36998;51.974;20.150;2022-09-30T00:18:27;88.40;;;30.05;;
49422;SDS011;36998;51.974;20.150;2022-09-30T00:20:53;88.22;;;31.77;;
49422;SDS011;36998;51.974;20.150;2022-09-30T00:23:19;90.32;;;30.92;;
49422;SDS011;36998;51.974;20.150;2022-09-30T00:25:45;88.03;;;31.20;;
49422;SDS011;36998;51.974;20.150;2022-09-30T00:28:12;92.43;;;31.27;;
49422;SDS011;36998;51.974;20.150;2022-09-30T00:30:38;83.13;;;30.50;;
49422;SDS011;36998;51.974;20.150;2022-09-30T00:33:03;82.18;;;29.65;;
49422;SDS011;36998;51.974;20.150;2022-09-30T00:35:29;82.38;;;30.48;;
49422;SDS011;36998;51.974;20.150;2022-09-30T00:37:54;77.82;;;29.30;;
49422;SDS011;36998;51.974;20.150;2022-09-30T00:40:20;83.80;;;30.48;;
49422;SDS011;36998;51.974;20.150;2022-09-30T00:42:46;78.65;;;29.20;;
49422;SDS011;36998;51.974;20.150;2022-09-30T00:45:12;86.85;;;31.88;;
49422;SDS011;36998;51.974;20.150;2022-09-30T00:50:29;93.95;;;32.42;;
49422;SDS011;36998;51.974;20.150;2022-09-30T00:55:34;83.53;;;29.85;;
49422;SDS011;36998;51.974;20.150;2022-09-30T00:58:07;74.75;;;29.83;;
49422;SDS011;36998;51.974;20.150;2022-09-30T01:00:36;74.07;;;29.98;;
49422;SDS011;36998;51.974;20.150;2022-09-30T01:03:01;75.43;;;28.35;;
49422;SDS011;36998;51.974;20.150;2022-09-30T01:05:28;84.20;;;29.92;;
49422;SDS011;36998;51.974;20.150;2022-09-30T01:07:56;86.97;;;30.25;;
49422;SDS011;36998;51.974;20.150;2022-09-30T01:10:24;82.35;;;28.50;;
49422;SDS011;36998;51.974;20.150;2022-09-30T01:12:50;77.88;;;29.40;;
49422;SDS011;36998;51.974;20.150;2022-09-30T01:15:16;85.10;;;30.20;;
49422;SDS011;36998;51.974;20.150;2022-09-30T01:17:46;88.78;;;32.03;;
49422;SDS011;36998;51.974;20.150;2022-09-30T01:20:36;84.38;;;31.17;;
49422;SDS011;36998;51.974;20.150;2022-09-30T01:23:30;82.82;;;28.85;;
49422;SDS011;36998;51.974;20.150;2022-09-30T01:26:40;80.05;;;29.60;;
49422;SDS011;36998;51.974;20.150;2022-09-30T01:31:48;79.38;;;29.35;;
49422;SDS011;36998;51.974;20.150;2022-09-30T01:38:15;82.97;;;30.58;;
49422;SDS011;36998;51.974;20.150;2022-09-30T01:40:34;77.10;;;28.17;;
49422;SDS011;36998;51.974;20.150;2022-09-30T01:43:26;91.00;;;29.95;;
49422;SDS011;36998;51.974;20.150;2022-09-30T01:46:03;80.90;;;28.48;;
49422;SDS011;36998;51.974;20.150;2022-09-30T01:49:03;74.03;;;26.83;;
49422;SDS011;36998;51.974;20.150;2022-09-30T01:51:50;72.35;;;27.30;;
49422;SDS011;36998;51.974;20.150;2022-09-30T01:54:38;67.95;;;25.13;;
49422;SDS011;36998;51.974;20.150;2022-09-30T01:57:29;75.55;;;27.83;;
49422;SDS011;36998;51.974;20.150;2022-09-30T02:00:04;81.25;;;28.05;;
49422;SDS011;36998;51.974;20.150;2022-09-30T02:02:35;78.10;;;27.88;;
49422;SDS011;36998;51.974;20.150;2022-09-30T02:05:16;77.38;;;28.05;;
49422;SDS011;36998;51.974;20.150;2022-09-30T02:07:47;79.10;;;28.42;;
49422;SDS011;36998;51.974;20.150;2022-09-30T02:10:20;80.07;;;29.30;;
49422;SDS011;36998;51.974;20.150;2022-09-30T02:12:52;85.43;;;28.42;;
49422;SDS011;36998;51.974;20.150;2022-09-30T02:15:23;83.75;;;29.30;;
49422;SDS011;36998;51.974;20.150;2022-09-30T02:18:01;98.03;;;32.78;;
49422;SDS011;36998;51.974;20.150;2022-09-30T02:20:32;105.80;;;32.60;;
49422;SDS011;36998;51.974;20.150;2022-09-30T02:23:11;116.57;;;34.90;;
49422;SDS011;36998;51.974;20.150;2022-09-30T02:25:42;109.65;;;33.28;;
49422;SDS011;36998;51.974;20.150;2022-09-30T02:28:12;113.45;;;35.15;;
49422;SDS011;36998;51.974;20.150;2022-09-30T02:30:46;103.78;;;34.72;;
49422;SDS011;36998;51.974;20.150;2022-09-30T02:33:16;113.78;;;35.90;;
49422;SDS011;36998;51.974;20.150;2022-09-30T02:35:57;113.80;;;35.83;;
49422;SDS011;36998;51.974;20.150;2022-09-30T02:38:32;103.20;;;34.85;;
49422;SDS011;36998;51.974;20.150;2022-09-30T02:41:11;102.25;;;35.22;;
49422;SDS011;36998;51.974;20.150;2022-09-30T02:43:41;93.30;;;33.67;;
49422;SDS011;36998;51.974;20.150;2022-09-30T02:49:16;94.07;;;32.25;;
49422;SDS011;36998;51.974;20.150;2022-09-30T02:57:01;94.05;;;32.15;;
49422;SDS011;36998;51.974;20.150;2022-09-30T02:59:41;92.00;;;32.58;;
49422;SDS011;36998;51.974;20.150;2022-09-30T03:02:06;91.55;;;31.92;;
49422;SDS011;36998;51.974;20.150;2022-09-30T03:04:32;102.70;;;33.60;;
49422;SDS011;36998;51.974;20.150;2022-09-30T03:06:59;103.57;;;35.17;;
49422;SDS011;36998;51.974;20.150;2022-09-30T03:09:26;104.60;;;34.67;;
49422;SDS011;36998;51.974;20.150;2022-09-30T03:11:59;102.13;;;35.47;;
49422;SDS011;36998;51.974;20.150;2022-09-30T03:14:39;125.53;;;40.90;;
49422;SDS011;36998;51.974;20.150;2022-09-30T03:17:19;108.45;;;34.78;;
49422;SDS011;36998;51.974;20.150;2022-09-30T03:28:45;88.38;;;30.38;;
49422;SDS011;36998;51.974;20.150;2022-09-30T03:31:47;82.63;;;30.60;;
49422;SDS011;36998;51.974;20.150;2022-09-30T03:34:37;92.05;;;31.70;;
49422;SDS011;36998;51.974;20.150;2022-09-30T03:37:45;82.10;;;31.45;;
49422;SDS011;36998;51.974;20.150;2022-09-30T03:40:27;89.15;;;30.08;;
49422;SDS011;36998;51.974;20.150;2022-09-30T03:43:18;78.15;;;28.80;;
49422;SDS011;36998;51.974;20.150;2022-09-30T03:45:59;76.30;;;28.77;;
49422;SDS011;36998;51.974;20.150;2022-09-30T03:48:31;68.90;;;26.98;;
49422;SDS011;36998;51.974;20.150;2022-09-30T03:50:58;61.30;;;24.33;;
49422;SDS011;36998;51.974;20.150;2022-09-30T03:53:24;70.70;;;25.55;;
49422;SDS011;36998;51.974;20.150;2022-09-30T03:55:52;68.75;;;26.95;;
49422;SDS011;36998;51.974;20.150;2022-09-30T03:58:19;68.65;;;25.48;;
49422;SDS011;36998;51.974;20.150;2022-09-30T04:00:48;66.90;;;26.10;;
49422;SDS011;36998;51.974;20.150;2022-09-30T04:03:15;71.63;;;26.20;;
49422;SDS011;36998;51.974;20.150;2022-09-30T04:05:41;63.65;;;25.05;;
49422;SDS011;36998;51.974;20.150;2022-09-30T04:08:07;64.15;;;24.52;;
49422;SDS011;36998;51.974;20.150;2022-09-30T04:10:33;60.58;;;24.00;;
49422;SDS011;36998;51.974;20.150;2022-09-30T04:12:59;58.22;;;23.25;;
49422;SDS011;36998;51.974;20.150;2022-09-30T04:15:26;60.10;;;24.48;;
49422;SDS011;36998;51.974;20.150;2022-09-30T04:17:51;65.35;;;25.23;;
49422;SDS011;36998;51.974;20.150;2022-09-30T04:20:17;72.05;;;25.35;;
49422;SDS011;36998;51.974;20.150;2022-09-30T04:22:43;62.08;;;24.08;;
49422;SDS011;36998;51.974;20.150;2022-09-30T04:25:09;69.43;;;25.42;;
49422;SDS011;36998;51.974;20.150;2022-09-30T04:27:34;59.28;;;24.00;;
49422;SDS011;36998;51.974;20.150;2022-09-30T04:30:02;60.67;;;24.08;;
49422;SDS011;36998;51.974;20.150;2022-09-30T04:32:27;62.80;;;24.58;;
49422;SDS011;36998;51.974;20.150;2022-09-30T04:34:53;61.00;;;25.42;;
49422;SDS011;36998;51.974;20.150;2022-09-30T04:37:19;64.60;;;24.60;;
49422;SDS011;36998;51.974;20.150;2022-09-30T04:39:45;75.65;;;25.45;;
49422;SDS011;36998;51.974;20.150;2022-09-30T04:42:11;60.03;;;25.40;;
49422;SDS011;36998;51.974;20.150;2022-09-30T04:44:36;60.28;;;24.15;;
49422;SDS011;36998;51.974;20.150;2022-09-30T04:47:02;62.38;;;23.67;;
49422;SDS011;36998;51.974;20.150;2022-09-30T04:49:27;54.03;;;23.15;;
49422;SDS011;36998;51.974;20.150;2022-09-30T04:51:53;55.13;;;22.60;;
49422;SDS011;36998;51.974;20.150;2022-09-30T04:54:19;59.67;;;22.08;;
49422;SDS011;36998;51.974;20.150;2022-09-30T04:56:44;57.22;;;22.13;;
49422;SDS011;36998;51.974;20.150;2022-09-30T04:59:10;56.60;;;22.35;;
49422;SDS011;36998;51.974;20.150;2022-09-30T05:01:35;55.28;;;22.45;;
49422;SDS011;36998;51.974;20.150;2022-09-30T05:04:01;55.55;;;22.27;;
49422;SDS011;36998;51.974;20.150;2022-09-30T05:06:27;50.65;;;21.77;;
49422;SDS011;36998;51.974;20.150;2022-09-30T05:08:53;48.10;;;22.85;;
49422;SDS011;36998;51.974;20.150;2022-09-30T05:11:19;56.13;;;22.67;;
49422;SDS011;36998;51.974;20.150;2022-09-30T05:13:45;53.28;;;23.30;;
49422;SDS011;36998;51.974;20.150;2022-09-30T05:16:12;60.08;;;25.67;;
49422;SDS011;36998;51.974;20.150;2022-09-30T05:18:38;57.55;;;25.08;;
49422;SDS011;36998;51.974;20.150;2022-09-30T05:21:07;58.97;;;25.50;;
49422;SDS011;36998;51.974;20.150;2022-09-30T05:23:32;64.82;;;26.38;;
49422;SDS011;36998;51.974;20.150;2022-09-30T05:25:58;51.90;;;24.27;;
49422;SDS011;36998;51.974;20.150;2022-09-30T05:28:25;53.13;;;23.33;;
49422;SDS011;36998;51.974;20.150;2022-09-30T05:30:58;48.97;;;22.40;;
49422;SDS011;36998;51.974;20.150;2022-09-30T05:33:27;57.25;;;23.30;;
49422;SDS011;36998;51.974;20.150;2022-09-30T05:35:54;51.45;;;22.00;;
49422;SDS011;36998;51.974;20.150;2022-09-30T05:38:22;53.75;;;23.58;;
49422;SDS011;36998;51.974;20.150;2022-09-30T05:40:48;61.20;;;25.58;;
49422;SDS011;36998;51.974;20.150;2022-09-30T05:43:13;64.32;;;26.45;;
49422;SDS011;36998;51.974;20.150;2022-09-30T05:45:38;79.00;;;28.98;;
49422;SDS011;36998;51.974;20.150;2022-09-30T05:48:04;70.05;;;26.95;;
49422;SDS011;36998;51.974;20.150;2022-09-30T05:50:31;69.72;;;29.40;;
49422;SDS011;36998;51.974;20.150;2022-09-30T05:52:56;81.25;;;29.50;;
49422;SDS011;36998;51.974;20.150;2022-09-30T05:55:22;71.40;;;28.33;;
49422;SDS011;36998;51.974;20.150;2022-09-30T05:57:48;64.85;;;28.65;;
49422;SDS011;36998;51.974;20.150;2022-09-30T06:00:15;66.38;;;28.98;;
49422;SDS011;36998;51.974;20.150;2022-09-30T06:02:41;65.63;;;30.10;;
49422;SDS011;36998;51.974;20.150;2022-09-30T06:05:07;56.08;;;26.67;;
49422;SDS011;36998;51.974;20.150;2022-09-30T06:07:34;48.88;;;24.02;;
49422;SDS011;36998;51.974;20.150;2022-09-30T06:10:01;54.30;;;24.38;;
49422;SDS011;36998;51.974;20.150;2022-09-30T06:12:27;42.30;;;22.27;;
49422;SDS011;36998;51.974;20.150;2022-09-30T06:14:53;43.80;;;22.13;;
49422;SDS011;36998;51.974;20.150;2022-09-30T06:17:21;50.05;;;22.15;;
49422;SDS011;36998;51.974;20.150;2022-09-30T06:19:47;44.92;;;21.75;;
49422;SDS011;36998;51.974;20.150;2022-09-30T06:22:16;41.53;;;23.15;;
49422;SDS011;36998;51.974;20.150;2022-09-30T06:24:42;50.63;;;23.45;;
49422;SDS011;36998;51.974;20.150;2022-09-30T06:27:09;47.63;;;23.50;;
49422;SDS011;36998;51.974;20.150;2022-09-30T06:29:35;56.35;;;23.75;;
49422;SDS011;36998;51.974;20.150;2022-09-30T06:32:00;44.90;;;22.88;;
49422;SDS011;36998;51.974;20.150;2022-09-30T06:34:26;44.78;;;22.13;;
49422;SDS011;36998;51.974;20.150;2022-09-30T06:36:52;48.47;;;22.38;;
49422;SDS011;36998;51.974;20.150;2022-09-30T06:39:18;41.30;;;23.17;;
49422;SDS011;36998;51.974;20.150;2022-09-30T06:41:43;46.42;;;22.15;;
49422;SDS011;36998;51.974;20.150;2022-09-30T06:44:11;44.78;;;22.88;;
49422;SDS011;36998;51.974;20.150;2022-09-30T06:46:37;43.03;;;22.45;;
49422;SDS011;36998;51.974;20.150;2022-09-30T06:49:03;46.28;;;22.02;;
49422;SDS011;36998;51.974;20.150;2022-09-30T06:51:30;45.25;;;22.63;;
49422;SDS011;36998;51.974;20.150;2022-09-30T06:53:58;41.33;;;22.10;;
49422;SDS011;36998;51.974;20.150;2022-09-30T06:56:24;34.22;;;20.45;;
49422;SDS011;36998;51.974;20.150;2022-09-30T06:58:50;35.80;;;20.65;;
49422;SDS011;36998;51.974;20.150;2022-09-30T07:01:16;39.65;;;21.70;;
49422;SDS011;36998;51.974;20.150;2022-09-30T07:03:43;38.72;;;20.10;;
49422;SDS011;36998;51.974;20.150;2022-09-30T07:06:10;39.55;;;20.23;;
49422;SDS011;36998;51.974;20.150;2022-09-30T07:08:37;36.50;;;21.67;;
49422;SDS011;36998;51.974;20.150;2022-09-30T07:11:10;36.38;;;21.67;;
49422;SDS011;36998;51.974;20.150;2022-09-30T07:13:57;38.83;;;20.15;;
49422;SDS011;36998;51.974;20.150;2022-09-30T07:16:22;39.22;;;21.27;;
49422;SDS011;36998;51.974;20.150;2022-09-30T07:18:50;33.80;;;19.85;;
49422;SDS011;36998;51.974;20.150;2022-09-30T07:21:16;32.88;;;19.20;;
49422;SDS011;36998;51.974;20.150;2022-09-30T07:23:42;31.73;;;17.98;;
49422;SDS011;36998;51.974;20.150;2022-09-30T07:26:12;36.78;;;18.90;;
49422;SDS011;36998;51.974;20.150;2022-09-30T07:28:39;36.65;;;18.17;;
49422;SDS011;36998;51.974;20.150;2022-09-30T07:31:06;31.35;;;17.65;;
49422;SDS011;36998;51.974;20.150;2022-09-30T07:33:36;29.63;;;18.10;;
49422;SDS011;36998;51.974;20.150;2022-09-30T07:36:05;30.42;;;15.88;;
49422;SDS011;36998;51.974;20.150;2022-09-30T07:38:33;34.58;;;16.38;;
49422;SDS011;36998;51.974;20.150;2022-09-30T07:41:10;30.88;;;16.40;;
49422;SDS011;36998;51.974;20.150;2022-09-30T07:43:38;25.42;;;15.05;;
49422;SDS011;36998;51.974;20.150;2022-09-30T07:46:07;25.60;;;15.10;;
49422;SDS011;36998;51.974;20.150;2022-09-30T07:48:43;27.77;;;15.05;;
49422;SDS011;36998;51.974;20.150;2022-09-30T07:51:22;26.40;;;13.65;;
49422;SDS011;36998;51.974;20.150;2022-09-30T07:54:10;27.98;;;15.88;;
49422;SDS011;36998;51.974;20.150;2022-09-30T07:56:39;26.70;;;14.02;;
49422;SDS011;36998;51.974;20.150;2022-09-30T07:59:06;22.13;;;13.90;;
49422;SDS011;36998;51.974;20.150;2022-09-30T08:01:32;22.23;;;13.95;;
49422;SDS011;36998;51.974;20.150;2022-09-30T08:03:59;25.65;;;13.95;;
49422;SDS011;36998;51.974;20.150;2022-09-30T08:06:27;24.80;;;13.93;;
49422;SDS011;36998;51.974;20.150;2022-09-30T08:08:55;22.55;;;13.43;;
49422;SDS011;36998;51.974;20.150;2022-09-30T08:11:22;27.13;;;13.15;;
49422;SDS011;36998;51.974;20.150;2022-09-30T08:13:49;23.02;;;13.63;;
49422;SDS011;36998;51.974;20.150;2022-09-30T08:16:19;19.77;;;12.98;;
49422;SDS011;36998;51.974;20.150;2022-09-30T08:18:46;25.52;;;13.30;;
49422;SDS011;36998;51.974;20.150;2022-09-30T08:21:12;23.83;;;12.85;;
49422;SDS011;36998;51.974;20.150;2022-09-30T08:23:38;23.30;;;12.18;;
49422;SDS011;36998;51.974;20.150;2022-09-30T08:26:04;22.65;;;12.63;;
49422;SDS011;36998;51.974;20.150;2022-09-30T08:28:32;18.00;;;11.80;;
49422;SDS011;36998;51.974;20.150;2022-09-30T08:33:38;16.38;;;11.90;;
49422;SDS011;36998;51.974;20.150;2022-09-30T08:36:05;16.08;;;11.02;;
49422;SDS011;36998;51.974;20.150;2022-09-30T08:38:32;17.23;;;12.30;;
49422;SDS011;36998;51.974;20.150;2022-09-30T08:46:42;20.88;;;12.35;;
49422;SDS011;36998;51.974;20.150;2022-09-30T08:52:23;18.27;;;11.23;;
49422;SDS011;36998;51.974;20.150;2022-09-30T08:54:52;14.43;;;10.05;;
49422;SDS011;36998;51.974;20.150;2022-09-30T08:57:19;19.58;;;10.10;;
49422;SDS011;36998;51.974;20.150;2022-09-30T08:59:48;14.57;;;9.18;;
49422;SDS011;36998;51.974;20.150;2022-09-30T09:02:32;14.77;;;9.45;;
49422;SDS011;36998;51.974;20.150;2022-09-30T09:11:09;13.88;;;8.20;;
49422;SDS011;36998;51.974;20.150;2022-09-30T09:13:59;13.75;;;8.65;;
49422;SDS011;36998;51.974;20.150;2022-09-30T09:16:35;16.85;;;7.55;;
49422;SDS011;36998;51.974;20.150;2022-09-30T09:19:09;12.52;;;7.97;;
49422;SDS011;36998;51.974;20.150;2022-09-30T09:24:25;14.18;;;7.75;;
49422;SDS011;36998;51.974;20.150;2022-09-30T09:26:52;14.65;;;7.65;;
49422;SDS011;36998;51.974;20.150;2022-09-30T09:29:21;14.23;;;7.97;;
49422;SDS011;36998;51.974;20.150;2022-09-30T09:32:12;11.65;;;8.25;;
49422;SDS011;36998;51.974;20.150;2022-09-30T09:34:40;13.50;;;9.35;;
49422;SDS011;36998;51.974;20.150;2022-09-30T09:37:15;12.82;;;8.27;;
49422;SDS011;36998;51.974;20.150;2022-09-30T09:40:15;14.45;;;8.52;;
49422;SDS011;36998;51.974;20.150;2022-09-30T09:42:54;14.85;;;8.45;;
49422;SDS011;36998;51.974;20.150;2022-09-30T09:45:26;14.23;;;7.63;;
49422;SDS011;36998;51.974;20.150;2022-09-30T09:48:08;13.77;;;9.20;;
49422;SDS011;36998;51.974;20.150;2022-09-30T09:50:40;15.47;;;8.80;;
49422;SDS011;36998;51.974;20.150;2022-09-30T09:53:13;11.40;;;8.70;;
49422;SDS011;36998;51.974;20.150;2022-09-30T09:55:46;13.38;;;8.68;;
49422;SDS011;36998;51.974;20.150;2022-09-30T09:58:14;11.57;;;8.07;;
49422;SDS011;36998;51.974;20.150;2022-09-30T10:00:41;11.38;;;8.20;;
49422;SDS011;36998;51.974;20.150;2022-09-30T10:03:11;11.80;;;7.67;;
49422;SDS011;36998;51.974;20.150;2022-09-30T10:08:28;10.73;;;7.18;;
49422;SDS011;36998;51.974;20.150;2022-09-30T10:10:59;9.43;;;6.40;;
49422;SDS011;36998;51.974;20.150;2022-09-30T10:16:01;13.45;;;6.70;;
49422;SDS011;36998;51.974;20.150;2022-09-30T10:18:28;10.25;;;6.72;;
49422;SDS011;36998;51.974;20.150;2022-09-30T10:20:58;10.98;;;7.05;;
49422;SDS011;36998;51.974;20.150;2022-09-30T10:28:48;9.18;;;6.75;;
49422;SDS011;36998;51.974;20.150;2022-09-30T10:31:27;12.68;;;7.38;;
49422;SDS011;36998;51.974;20.150;2022-09-30T10:36:36;13.07;;;6.40;;
49422;SDS011;36998;51.974;20.150;2022-09-30T10:39:06;10.48;;;6.05;;
49422;SDS011;36998;51.974;20.150;2022-09-30T10:41:49;11.27;;;6.57;;
49422;SDS011;36998;51.974;20.150;2022-09-30T10:44:25;9.32;;;5.65;;
49422;SDS011;36998;51.974;20.150;2022-09-30T10:46:58;7.57;;;4.88;;
49422;SDS011;36998;51.974;20.150;2022-09-30T10:51:54;7.28;;;5.68;;
49422;SDS011;36998;51.974;20.150;2022-09-30T10:54:32;10.23;;;5.93;;
49422;SDS011;36998;51.974;20.150;2022-09-30T10:57:14;8.82;;;5.40;;
49422;SDS011;36998;51.974;20.150;2022-09-30T10:59:46;8.48;;;5.05;;
49422;SDS011;36998;51.974;20.150;2022-09-30T11:02:16;9.63;;;5.00;;
49422;SDS011;36998;51.974;20.150;2022-09-30T11:04:52;8.90;;;4.90;;
49422;SDS011;36998;51.974;20.150;2022-09-30T11:07:30;8.35;;;5.68;;
49422;SDS011;36998;51.974;20.150;2022-09-30T11:10:06;11.25;;;5.63;;
49422;SDS011;36998;51.974;20.150;2022-09-30T11:12:47;8.73;;;5.75;;
49422;SDS011;36998;51.974;20.150;2022-09-30T11:15:29;6.75;;;5.15;;
49422;SDS011;36998;51.974;20.150;2022-09-30T11:20:47;10.02;;;5.00;;
49422;SDS011;36998;51.974;20.150;2022-09-30T11:23:42;8.82;;;4.30;;
49422;SDS011;36998;51.974;20.150;2022-09-30T11:28:45;9.38;;;5.03;;
49422;SDS011;36998;51.974;20.150;2022-09-30T11:42:18;7.55;;;4.25;;
49422;SDS011;36998;51.974;20.150;2022-09-30T11:45:17;9.32;;;4.68;;
49422;SDS011;36998;51.974;20.150;2022-09-30T11:57:18;10.98;;;4.68;;
49422;SDS011;36998;51.974;20.150;2022-09-30T11:59:55;4.90;;;3.70;;
49422;SDS011;36998;51.974;20.150;2022-09-30T12:02:50;9.43;;;4.05;;
49422;SDS011;36998;51.974;20.150;2022-09-30T12:05:35;12.07;;;4.05;;
49422;SDS011;36998;51.974;20.150;2022-09-30T12:08:14;7.78;;;4.40;;
49422;SDS011;36998;51.974;20.150;2022-09-30T12:10:47;7.93;;;4.38;;
49422;SDS011;36998;51.974;20.150;2022-09-30T12:13:29;10.88;;;3.33;;
49422;SDS011;36998;51.974;20.150;2022-09-30T12:15:58;6.93;;;3.28;;
49422;SDS011;36998;51.974;20.150;2022-09-30T12:18:33;18.02;;;5.32;;
49422;SDS011;36998;51.974;20.150;2022-09-30T12:21:24;14.07;;;3.85;;
49422;SDS011;36998;51.974;20.150;2022-09-30T12:24:05;6.78;;;3.33;;
49422;SDS011;36998;51.974;20.150;2022-09-30T12:26:44;4.07;;;2.88;;
49422;SDS011;36998;51.974;20.150;2022-09-30T12:29:14;8.70;;;3.85;;
49422;SDS011;36998;51.974;20.150;2022-09-30T12:32:11;7.30;;;3.90;;
49422;SDS011;36998;51.974;20.150;2022-09-30T12:38:03;6.30;;;3.38;;
49422;SDS011;36998;51.974;20.150;2022-09-30T12:43:36;5.78;;;3.50;;
49422;SDS011;36998;51.974;20.150;2022-09-30T12:46:20;9.10;;;3.53;;
49422;SDS011;36998;51.974;20.150;2022-09-30T12:49:01;7.72;;;3.22;;
49422;SDS011;36998;51.974;20.150;2022-09-30T12:51:33;7.43;;;3.38;;
49422;SDS011;36998;51.974;20.150;2022-09-30T12:54:09;5.22;;;3.10;;
49422;SDS011;36998;51.974;20.150;2022-09-30T12:56:41;7.63;;;3.88;;
49422;SDS011;36998;51.974;20.150;2022-09-30T12:59:10;6.68;;;3.00;;
49422;SDS011;36998;51.974;20.150;2022-09-30T13:01:43;7.90;;;2.70;;
49422;SDS011;36998;51.974;20.150;2022-09-30T13:04:14;6.60;;;2.72;;
49422;SDS011;36998;51.974;20.150;2022-09-30T13:07:05;5.40;;;2.30;;
49422;SDS011;36998;51.974;20.150;2022-09-30T13:09:37;6.90;;;3.17;;
49422;SDS011;36998;51.974;20.150;2022-09-30T13:12:38;7.97;;;3.05;;
49422;SDS011;36998;51.974;20.150;2022-09-30T13:17:48;5.10;;;3.15;;
49422;SDS011;36998;51.974;20.150;2022-09-30T13:23:37;4.28;;;2.58;;
49422;SDS011;36998;51.974;20.150;2022-09-30T13:34:23;3.72;;;2.53;;
49422;SDS011;36998;51.974;20.150;2022-09-30T13:37:01;9.30;;;3.08;;
49422;SDS011;36998;51.974;20.150;2022-09-30T13:39:42;5.18;;;2.97;;
49422;SDS011;36998;51.974;20.150;2022-09-30T13:47:39;4.15;;;3.15;;
49422;SDS011;36998;51.974;20.150;2022-09-30T13:50:13;3.63;;;3.25;;
49422;SDS011;36998;51.974;20.150;2022-09-30T13:52:44;4.65;;;3.50;;
49422;SDS011;36998;51.974;20.150;2022-09-30T13:55:17;6.13;;;3.85;;
49422;SDS011;36998;51.974;20.150;2022-09-30T13:57:54;7.22;;;3.78;;
49422;SDS011;36998;51.974;20.150;2022-09-30T14:06:16;5.68;;;4.30;;
49422;SDS011;36998;51.974;20.150;2022-09-30T14:09:12;6.28;;;3.80;;
49422;SDS011;36998;51.974;20.150;2022-09-30T14:11:53;10.60;;;5.80;;
49422;SDS011;36998;51.974;20.150;2022-09-30T14:17:28;6.25;;;4.53;;
49422;SDS011;36998;51.974;20.150;2022-09-30T14:23:15;9.70;;;4.88;;
49422;SDS011;36998;51.974;20.150;2022-09-30T14:28:52;6.97;;;4.25;;
49422;SDS011;36998;51.974;20.150;2022-09-30T14:31:24;8.02;;;4.22;;
49422;SDS011;36998;51.974;20.150;2022-09-30T14:33:50;7.68;;;5.07;;
49422;SDS011;36998;51.974;20.150;2022-09-30T14:36:17;7.05;;;4.18;;
49422;SDS011;36998;51.974;20.150;2022-09-30T14:38:48;7.53;;;4.60;;
49422;SDS011;36998;51.974;20.150;2022-09-30T14:41:19;5.93;;;4.07;;
49422;SDS011;36998;51.974;20.150;2022-09-30T14:43:47;7.53;;;5.20;;
49422;SDS011;36998;51.974;20.150;2022-09-30T14:46:24;12.63;;;6.20;;
49422;SDS011;36998;51.974;20.150;2022-09-30T14:48:51;8.93;;;5.43;;
49422;SDS011;36998;51.974;20.150;2022-09-30T14:51:18;15.32;;;9.10;;
49422;SDS011;36998;51.974;20.150;2022-09-30T14:58:52;10.35;;;5.40;;
49422;SDS011;36998;51.974;20.150;2022-09-30T15:01:21;8.80;;;5.40;;
49422;SDS011;36998;51.974;20.150;2022-09-30T15:03:51;10.95;;;6.20;;
49422;SDS011;36998;51.974;20.150;2022-09-30T15:06:26;11.52;;;6.68;;
49422;SDS011;36998;51.974;20.150;2022-09-30T15:08:59;9.80;;;5.88;;
49422;SDS011;36998;51.974;20.150;2022-09-30T15:11:26;15.25;;;6.00;;
49422;SDS011;36998;51.974;20.150;2022-09-30T15:13:57;11.95;;;6.10;;
49422;SDS011;36998;51.974;20.150;2022-09-30T15:16:27;8.40;;;5.30;;
49422;SDS011;36998;51.974;20.150;2022-09-30T15:18:54;9.32;;;6.03;;
49422;SDS011;36998;51.974;20.150;2022-09-30T15:21:20;28.60;;;13.98;;
49422;SDS011;36998;51.974;20.150;2022-09-30T15:23:49;32.75;;;16.23;;
49422;SDS011;36998;51.974;20.150;2022-09-30T15:26:17;16.73;;;8.00;;
49422;SDS011;36998;51.974;20.150;2022-09-30T15:28:45;22.90;;;8.63;;
49422;SDS011;36998;51.974;20.150;2022-09-30T15:31:27;19.33;;;9.95;;
49422;SDS011;36998;51.974;20.150;2022-09-30T15:34:06;26.48;;;13.07;;
49422;SDS011;36998;51.974;20.150;2022-09-30T15:36:38;29.65;;;12.10;;
49422;SDS011;36998;51.974;20.150;2022-09-30T15:39:04;22.83;;;10.73;;
49422;SDS011;36998;51.974;20.150;2022-09-30T15:41:42;20.65;;;9.13;;
49422;SDS011;36998;51.974;20.150;2022-09-30T15:44:13;52.25;;;19.65;;
49422;SDS011;36998;51.974;20.150;2022-09-30T15:46:58;44.67;;;17.63;;
49422;SDS011;36998;51.974;20.150;2022-09-30T15:49:30;44.33;;;15.68;;
49422;SDS011;36998;51.974;20.150;2022-09-30T15:52:18;42.78;;;18.33;;
49422;SDS011;36998;51.974;20.150;2022-09-30T15:54:45;27.27;;;13.50;;
49422;SDS011;36998;51.974;20.150;2022-09-30T16:05:46;42.08;;;17.92;;
49422;SDS011;36998;51.974;20.150;2022-09-30T16:08:14;43.50;;;17.92;;
49422;SDS011;36998;51.974;20.150;2022-09-30T16:10:50;37.05;;;15.98;;
49422;SDS011;36998;51.974;20.150;2022-09-30T16:13:18;32.70;;;15.63;;
49422;SDS011;36998;51.974;20.150;2022-09-30T16:15:50;30.20;;;14.45;;
49422;SDS011;36998;51.974;20.150;2022-09-30T16:18:19;27.33;;;13.27;;
49422;SDS011;36998;51.974;20.150;2022-09-30T16:20:57;35.38;;;16.63;;
49422;SDS011;36998;51.974;20.150;2022-09-30T16:23:29;40.50;;;20.05;;
49422;SDS011;36998;51.974;20.150;2022-09-30T16:28:40;27.83;;;14.93;;
49422;SDS011;36998;51.974;20.150;2022-09-30T16:31:09;24.75;;;12.85;;
49422;SDS011;36998;51.974;20.150;2022-09-30T16:33:36;23.48;;;11.45;;
49422;SDS011;36998;51.974;20.150;2022-09-30T16:36:06;17.88;;;9.88;;
49422;SDS011;36998;51.974;20.150;2022-09-30T16:38:33;17.70;;;9.82;;
49422;SDS011;36998;51.974;20.150;2022-09-30T16:41:00;17.35;;;10.52;;
49422;SDS011;36998;51.974;20.150;2022-09-30T16:43:28;18.40;;;11.45;;
49422;SDS011;36998;51.974;20.150;2022-09-30T16:45:54;16.13;;;10.07;;
49422;SDS011;36998;51.974;20.150;2022-09-30T16:48:21;18.10;;;10.23;;
49422;SDS011;36998;51.974;20.150;2022-09-30T16:53:18;21.67;;;12.20;;
49422;SDS011;36998;51.974;20.150;2022-09-30T16:55:43;35.83;;;20.27;;
49422;SDS011;36998;51.974;20.150;2022-09-30T16:58:12;39.63;;;18.85;;
49422;SDS011;36998;51.974;20.150;2022-09-30T17:00:40;36.80;;;18.80;;
49422;SDS011;36998;51.974;20.150;2022-09-30T17:03:13;40.92;;;21.20;;
49422;SDS011;36998;51.974;20.150;2022-09-30T17:05:44;38.88;;;21.13;;
49422;SDS011;36998;51.974;20.150;2022-09-30T17:08:11;41.10;;;23.17;;
49422;SDS011;36998;51.974;20.150;2022-09-30T17:10:38;53.72;;;24.70;;
49422;SDS011;36998;51.974;20.150;2022-09-30T17:13:04;45.53;;;25.30;;